Time;durP1;ratioP1;P1;durP2;ratioP2;P2;SDS_P1;SDS_P2;PMS_P1;PMS_P2;Temp;Humidity;BMP_temperature;BMP_pressure;BME280_temperature;BME280_humidity;BME280_pressure;Samples;Min_cycle;Max_cycle;Signal;HPM_P1;HPM_P2
2022/06/12 00:00:53;;;;;;;4.15;2.45;;;24.90;49.50;;;;;;5057595;28;20485;-64
2022/06/12 00:03:21;;;;;;;4.47;2.55;;;24.90;49.40;;;;;;5057494;28;20028;-64
2022/06/12 00:05:49;;;;;;;3.80;2.35;;;24.90;49.40;;;;;;5057177;28;20039;-65
2022/06/12 00:08:16;;;;;;;4.20;2.40;;;24.90;49.40;;;;;;5055561;28;20880;-65
2022/06/12 00:10:45;;;;;;;3.83;2.33;;;24.90;49.40;;;;;;5056936;28;20067;-65
2022/06/12 00:13:13;;;;;;;3.75;2.28;;;24.90;49.40;;;;;;5053668;28;20108;-62
2022/06/12 00:15:39;;;;;;;4.03;2.22;;;24.90;49.40;;;;;;5056720;28;20138;-64
2022/06/12 00:18:05;;;;;;;4.28;2.42;;;24.90;49.40;;;;;;5058050;28;20202;-65
2022/06/12 00:20:31;;;;;;;3.88;2.28;;;24.90;49.40;;;;;;5056941;28;20033;-66
2022/06/12 00:22:58;;;;;;;3.63;2.20;;;24.90;49.40;;;;;;5057335;28;20032;-65
2022/06/12 00:25:28;;;;;;;3.40;2.10;;;24.90;49.40;;;;;;5054442;28;20081;-66
2022/06/12 00:27:54;;;;;;;3.67;2.30;;;24.90;49.40;;;;;;5056329;28;20043;-65
2022/06/12 00:30:22;;;;;;;3.08;2.10;;;24.90;49.40;;;;;;5056960;28;20113;-64
2022/06/12 00:32:52;;;;;;;3.95;2.15;;;24.90;49.40;;;;;;5056943;28;20039;-65
2022/06/12 00:35:20;;;;;;;3.92;2.20;;;24.90;49.40;;;;;;5056659;28;20074;-66
2022/06/12 00:37:46;;;;;;;2.92;1.95;;;24.90;49.30;;;;;;5054996;28;20479;-65
2022/06/12 00:40:13;;;;;;;4.07;2.30;;;24.90;49.40;;;;;;5055790;28;20123;-64
2022/06/12 00:42:45;;;;;;;3.60;2.08;;;24.90;49.50;;;;;;5055790;28;20052;-66
2022/06/12 00:45:41;;;;;;;4.07;2.10;;;24.90;49.40;;;;;;5057468;28;20036;-65
2022/06/12 00:48:17;;;;;;;3.72;2.20;;;24.80;49.30;;;;;;5056263;28;20333;-66
2022/06/12 00:50:48;;;;;;;3.67;2.30;;;24.80;49.30;;;;;;5058125;28;20032;-65
2022/06/12 00:53:20;;;;;;;3.63;2.20;;;24.80;49.30;;;;;;5037465;28;20042;-62
2022/06/12 00:55:58;;;;;;;3.15;2.00;;;24.80;49.30;;;;;;5056730;28;20096;-66
2022/06/12 00:58:28;;;;;;;3.45;2.20;;;24.80;49.30;;;;;;5054976;28;20020;-66
2022/06/12 01:00:53;;;;;;;3.35;2.10;;;24.80;49.30;;;;;;5059132;28;20082;-65
2022/06/12 01:03:21;;;;;;;4.25;2.15;;;24.80;49.30;;;;;;5056214;28;20473;-65
2022/06/12 01:08:32;;;;;;;3.20;2.00;;;24.80;49.20;;;;;;5054994;28;20087;-64
2022/06/12 01:11:04;;;;;;;4.00;2.20;;;24.80;49.20;;;;;;5054972;28;20494;-62
2022/06/12 01:13:35;;;;;;;2.85;2.00;;;24.80;49.30;;;;;;5055380;28;20028;-65
2022/06/12 01:16:05;;;;;;;3.40;2.13;;;24.80;49.20;;;;;;5056903;28;20047;-65
2022/06/12 01:18:39;;;;;;;3.95;2.40;;;24.80;49.20;;;;;;5055844;28;20028;-61
2022/06/12 01:21:48;;;;;;;3.63;1.90;;;24.80;49.30;;;;;;5056781;28;20039;-65
2022/06/12 01:24:47;;;;;;;3.30;1.88;;;24.80;49.20;;;;;;5053781;28;20037;-66
2022/06/12 01:27:37;;;;;;;3.75;2.20;;;24.80;49.20;;;;;;5056615;28;20437;-65
2022/06/12 01:30:19;;;;;;;3.03;2.00;;;24.80;49.20;;;;;;5057018;28;20021;-65
2022/06/12 01:32:50;;;;;;;2.92;1.83;;;24.80;49.20;;;;;;5056692;28;20075;-65
2022/06/12 01:35:27;;;;;;;3.75;2.10;;;24.80;49.20;;;;;;5055761;28;20059;-63
2022/06/12 01:38:31;;;;;;;3.35;1.83;;;24.80;49.20;;;;;;5055203;28;20029;-65
2022/06/12 01:41:10;;;;;;;3.65;2.05;;;24.80;49.20;;;;;;4969592;28;20453;-63
2022/06/12 01:43:47;;;;;;;3.05;2.00;;;24.80;49.20;;;;;;5056598;28;20538;-66
2022/06/12 01:46:23;;;;;;;4.05;2.40;;;24.80;49.20;;;;;;5056864;28;20137;-64
2022/06/12 01:48:54;;;;;;;2.90;1.92;;;24.80;49.20;;;;;;5055941;28;20082;-64
2022/06/12 01:51:32;;;;;;;2.92;1.90;;;24.80;49.20;;;;;;5057976;28;20043;-66
2022/06/12 01:54:03;;;;;;;3.42;2.20;;;24.80;49.20;;;;;;5052494;28;20028;-62
2022/06/12 01:56:35;;;;;;;3.13;2.00;;;24.80;49.20;;;;;;5055832;28;20516;-64
2022/06/12 01:59:23;;;;;;;2.97;1.90;;;24.80;49.20;;;;;;5056082;28;20623;-64
2022/06/12 02:01:54;;;;;;;3.15;2.08;;;24.80;49.20;;;;;;5055963;28;20039;-65
2022/06/12 02:04:31;;;;;;;3.22;2.00;;;24.80;49.20;;;;;;5056377;28;20093;-62
2022/06/12 02:07:22;;;;;;;2.92;2.00;;;24.80;49.20;;;;;;5054161;28;20146;-65
2022/06/12 02:09:54;;;;;;;3.20;1.90;;;24.80;49.20;;;;;;5053650;28;20025;-64
2022/06/12 02:15:35;;;;;;;2.95;1.75;;;24.80;49.10;;;;;;5055170;28;20039;-65
2022/06/12 02:18:25;;;;;;;3.58;1.95;;;24.80;49.20;;;;;;5053661;28;20030;-65
2022/06/12 02:21:16;;;;;;;2.70;1.70;;;24.80;49.10;;;;;;5057566;28;20040;-64
2022/06/12 02:23:50;;;;;;;2.67;1.50;;;24.80;49.10;;;;;;5056727;28;20090;-65
2022/06/12 02:26:20;;;;;;;2.67;1.75;;;24.70;49.10;;;;;;5058258;28;20051;-65
2022/06/12 02:28:51;;;;;;;;;;;24.70;49.10;;;;;;5059304;28;20045;-62
2022/06/12 02:31:23;;;;;;;2.67;1.75;;;24.70;49.10;;;;;;5059413;28;19916;-64
2022/06/12 02:33:57;;;;;;;2.63;1.80;;;24.70;49.10;;;;;;5058327;28;20055;-65
2022/06/12 02:36:27;;;;;;;2.47;1.77;;;24.70;49.10;;;;;;5059086;28;20089;-65
2022/06/12 02:39:01;;;;;;;2.58;1.70;;;24.70;49.10;;;;;;5055832;28;20029;-64
2022/06/12 02:41:39;;;;;;;2.70;1.80;;;24.70;49.10;;;;;;5058742;28;20030;-65
2022/06/12 02:44:14;;;;;;;2.67;1.70;;;24.70;49.10;;;;;;5058627;28;20072;-63
2022/06/12 02:46:45;;;;;;;3.08;1.80;;;24.70;49.10;;;;;;5059189;28;20028;-63
2022/06/12 02:49:13;;;;;;;3.42;1.77;;;24.70;49.10;;;;;;5059609;28;20368;-64
2022/06/12 02:51:42;;;;;;;3.33;1.75;;;24.70;49.10;;;;;;5054793;28;20028;-64
2022/06/12 02:54:29;;;;;;;2.83;1.88;;;24.70;49.10;;;;;;5056582;28;20495;-65
2022/06/12 02:57:04;;;;;;;2.63;1.88;;;24.70;49.10;;;;;;5058509;28;20771;-64
2022/06/12 02:59:43;;;;;;;3.17;1.63;;;24.70;49.10;;;;;;5058169;28;20058;-66
2022/06/12 03:02:25;;;;;;;2.60;1.60;;;24.70;49.10;;;;;;5057658;28;20037;-64
2022/06/12 03:05:02;;;;;;;2.65;1.77;;;24.70;49.10;;;;;;5059152;28;20174;-66
2022/06/12 03:07:31;;;;;;;2.38;1.50;;;24.70;49.10;;;;;;5058610;28;20024;-65
2022/06/12 03:10:03;;;;;;;3.63;1.63;;;24.70;49.10;;;;;;5056502;28;20403;-65
2022/06/12 03:12:29;;;;;;;2.80;1.88;;;24.70;49.10;;;;;;5058106;28;20202;-61
2022/06/12 03:14:56;;;;;;;3.28;2.03;;;24.70;49.10;;;;;;5057793;28;20586;-64
2022/06/12 03:17:22;;;;;;;2.33;1.48;;;24.60;49.00;;;;;;5058782;28;20032;-66
2022/06/12 03:19:54;;;;;;;2.67;1.85;;;24.70;49.10;;;;;;5058021;28;20031;-65
2022/06/12 03:22:46;;;;;;;2.15;1.40;;;24.70;49.10;;;;;;5056826;28;20062;-65
2022/06/12 03:25:46;;;;;;;2.47;1.60;;;24.60;49.00;;;;;;5055650;28;20031;-64
2022/06/12 03:28:18;;;;;;;2.50;1.52;;;24.70;49.10;;;;;;5045789;28;20045;-63
2022/06/12 03:30:51;;;;;;;2.80;1.90;;;24.60;49.10;;;;;;5059528;28;20127;-64
2022/06/12 03:33:35;;;;;;;2.67;1.60;;;24.60;49.00;;;;;;5058205;28;20024;-62
2022/06/12 03:36:23;;;;;;;2.28;1.45;;;24.60;49.00;;;;;;5057011;28;20484;-65
2022/06/12 03:39:00;;;;;;;3.05;1.55;;;24.60;49.10;;;;;;5055460;28;20024;-65
2022/06/12 03:41:35;;;;;;;2.60;1.45;;;24.60;49.00;;;;;;5058644;28;20128;-66
2022/06/12 03:44:29;;;;;;;2.20;1.50;;;24.60;49.00;;;;;;5053287;28;20028;-65
2022/06/12 03:47:09;;;;;;;2.70;1.52;;;24.60;49.00;;;;;;5056851;28;20126;-65
2022/06/12 03:49:48;;;;;;;2.50;1.60;;;24.60;49.00;;;;;;5058299;28;20028;-62
2022/06/12 03:52:22;;;;;;;2.25;1.58;;;24.60;49.00;;;;;;5055838;28;20064;-65
2022/06/12 03:55:10;;;;;;;2.58;1.50;;;24.60;49.00;;;;;;5055365;28;20036;-65
2022/06/12 03:57:52;;;;;;;3.13;1.80;;;24.60;49.00;;;;;;5056616;28;20020;-64
2022/06/12 04:00:29;;;;;;;2.00;1.30;;;24.60;49.00;;;;;;5039819;28;20029;-63
2022/06/12 04:03:03;;;;;;;2.22;1.58;;;24.60;49.00;;;;;;5058406;28;20120;-66
2022/06/12 04:05:37;;;;;;;2.42;1.60;;;24.60;49.00;;;;;;5058008;28;20173;-66
2022/06/12 04:08:05;;;;;;;3.33;1.60;;;24.60;49.00;;;;;;5055295;28;20059;-66
2022/06/12 04:10:34;;;;;;;2.80;1.50;;;24.60;49.00;;;;;;5057122;28;20043;-65
2022/06/12 04:13:01;;;;;;;2.10;1.42;;;24.50;49.00;;;;;;5058340;28;20884;-66
2022/06/12 04:15:32;;;;;;;2.28;1.50;;;24.50;49.00;;;;;;5055340;28;20063;-66
2022/06/12 04:17:59;;;;;;;2.42;1.50;;;24.60;49.00;;;;;;5057279;28;20059;-65
2022/06/12 04:20:38;;;;;;;2.60;1.63;;;24.50;49.00;;;;;;5057180;28;20056;-64
2022/06/12 04:23:09;;;;;;;2.60;1.50;;;24.50;49.00;;;;;;5056535;28;20024;-65
2022/06/12 04:25:44;;;;;;;2.67;1.67;;;24.50;49.00;;;;;;5051109;28;20033;-65
2022/06/12 04:28:43;;;;;;;3.25;1.83;;;24.50;49.00;;;;;;5057606;28;20032;-63
2022/06/12 04:31:15;;;;;;;2.90;1.88;;;24.50;48.90;;;;;;5012393;28;20066;-64
2022/06/12 04:33:56;;;;;;;2.00;1.40;;;24.60;49.50;;;;;;5056526;28;20047;-63
2022/06/12 04:36:22;;;;;;;2.40;1.40;;;24.50;49.00;;;;;;5057468;28;20509;-66
2022/06/12 04:38:48;;;;;;;2.10;1.40;;;24.50;49.00;;;;;;5054472;28;20526;-66
2022/06/12 04:41:22;;;;;;;2.45;1.70;;;24.50;49.00;;;;;;5057867;28;20032;-63
2022/06/12 04:43:48;;;;;;;2.72;1.52;;;24.50;48.90;;;;;;5056966;28;20060;-65
2022/06/12 04:46:13;;;;;;;2.35;1.48;;;24.50;49.00;;;;;;5057964;28;20060;-65
2022/06/12 04:48:42;;;;;;;2.20;1.48;;;24.50;49.00;;;;;;5056009;28;20519;-67
2022/06/12 04:51:10;;;;;;;2.20;1.30;;;24.50;49.00;;;;;;5056979;28;20102;-61
2022/06/12 04:53:36;;;;;;;2.55;1.60;;;24.50;49.00;;;;;;5054761;28;20031;-64
2022/06/12 04:56:02;;;;;;;2.00;1.35;;;24.50;48.90;;;;;;5056216;28;20132;-64
2022/06/12 04:58:28;;;;;;;2.35;1.58;;;24.50;48.90;;;;;;5057004;28;20443;-62
2022/06/12 05:00:53;;;;;;;2.03;1.45;;;24.50;49.00;;;;;;5056694;28;20115;-65
2022/06/12 05:03:19;;;;;;;2.83;1.60;;;24.50;49.00;;;;;;5054805;28;20021;-65
2022/06/12 05:05:45;;;;;;;2.08;1.42;;;24.50;49.40;;;;;;5057135;28;20105;-65
2022/06/12 05:08:11;;;;;;;2.42;1.40;;;24.50;48.90;;;;;;5055957;28;20468;-66
2022/06/12 05:10:37;;;;;;;1.98;1.33;;;24.50;49.00;;;;;;5057032;28;20028;-64
2022/06/12 05:13:05;;;;;;;2.55;1.40;;;24.50;49.00;;;;;;5055570;28;20082;-62
2022/06/12 05:15:31;;;;;;;2.13;1.40;;;24.50;49.00;;;;;;5055278;28;20032;-65
2022/06/12 05:17:57;;;;;;;2.25;1.50;;;24.50;49.00;;;;;;5056836;28;20025;-62
2022/06/12 05:20:27;;;;;;;2.47;1.40;;;24.50;49.00;;;;;;5056030;28;20024;-66
2022/06/12 05:22:53;;;;;;;2.03;1.30;;;24.50;49.00;;;;;;5055837;28;20070;-66
2022/06/12 05:25:19;;;;;;;2.10;1.27;;;24.50;49.00;;;;;;5055029;28;20062;-64
2022/06/12 05:27:46;;;;;;;2.60;1.45;;;24.50;49.00;;;;;;5055928;28;20123;-64
2022/06/12 05:30:15;;;;;;;3.72;1.70;;;24.50;48.70;;;;;;5057368;28;20036;-66
2022/06/12 05:32:42;;;;;;;2.78;1.80;;;24.40;48.50;;;;;;5056620;28;20542;-62
2022/06/12 05:35:09;;;;;;;4.05;2.00;;;24.30;48.40;;;;;;5054075;28;20106;-66
2022/06/12 05:37:36;;;;;;;3.95;1.63;;;24.20;48.40;;;;;;5050879;28;20079;-65
2022/06/12 05:40:04;;;;;;;2.67;1.60;;;24.10;48.60;;;;;;5032704;28;20036;-65
2022/06/12 05:42:30;;;;;;;2.35;1.70;;;24.10;48.60;;;;;;5055626;28;20025;-65
2022/06/12 05:44:56;;;;;;;2.00;1.50;;;24.00;48.60;;;;;;5055140;28;20045;-65
2022/06/12 05:47:21;;;;;;;2.60;1.90;;;24.00;48.60;;;;;;5057648;28;20048;-65
2022/06/12 05:49:48;;;;;;;3.03;2.25;;;23.90;48.60;;;;;;5055434;28;20117;-66
2022/06/12 05:52:14;;;;;;;3.53;2.17;;;23.80;48.80;;;;;;5053302;28;20653;-67
2022/06/12 05:54:39;;;;;;;3.65;2.45;;;23.70;49.00;;;;;;5055022;28;20039;-66
2022/06/12 05:57:06;;;;;;;4.32;2.30;;;23.60;49.30;;;;;;5059352;28;20033;-65
2022/06/12 05:59:31;;;;;;;2.58;2.00;;;23.60;49.50;;;;;;5058724;28;20020;-66
2022/06/12 06:01:57;;;;;;;3.50;2.60;;;23.60;49.60;;;;;;5040429;28;20063;-62
2022/06/12 06:04:23;;;;;;;3.65;2.45;;;23.50;49.80;;;;;;5059625;28;20063;-66
2022/06/12 06:06:52;;;;;;;3.25;2.47;;;23.40;50.30;;;;;;5060532;28;20032;-63
2022/06/12 06:09:18;;;;;;;2.83;1.95;;;23.40;50.40;;;;;;5056961;28;20025;-64
2022/06/12 06:11:44;;;;;;;3.30;2.38;;;23.40;50.40;;;;;;5060283;28;20027;-66
2022/06/12 06:14:10;;;;;;;3.58;2.30;;;23.50;50.50;;;;;;5060724;28;20029;-66
2022/06/12 06:16:37;;;;;;;4.47;2.65;;;23.40;50.50;;;;;;5041861;28;20035;-64
2022/06/12 06:19:03;;;;;;;4.25;2.50;;;23.30;51.20;;;;;;5059140;28;20037;-66
2022/06/12 06:21:29;;;;;;;2.97;2.17;;;23.30;50.90;;;;;;5060075;28;20040;-66
2022/06/12 06:23:55;;;;;;;2.72;2.00;;;23.20;50.90;;;;;;5037238;28;20086;-64
2022/06/12 06:26:22;;;;;;;3.40;2.35;;;23.30;50.70;;;;;;5059010;28;20126;-65
2022/06/12 06:28:51;;;;;;;3.22;2.00;;;23.30;50.70;;;;;;5057458;28;20166;-65
2022/06/12 06:31:17;;;;;;;3.92;2.45;;;23.30;50.80;;;;;;5060869;28;20070;-65
2022/06/12 06:33:42;;;;;;;3.00;2.10;;;23.30;51.10;;;;;;5059335;28;20032;-64
2022/06/12 06:36:09;;;;;;;3.78;2.50;;;23.30;51.30;;;;;;5060109;28;20039;-64
2022/06/12 06:38:35;;;;;;;3.42;2.42;;;23.20;51.50;;;;;;5056304;28;20032;-63
2022/06/12 06:41:01;;;;;;;3.45;2.00;;;23.20;51.40;;;;;;5059423;28;20380;-65
2022/06/12 06:43:26;;;;;;;2.95;1.70;;;23.20;51.30;;;;;;5057458;28;20044;-63
2022/06/12 06:48:36;;;;;;;2.40;1.60;;;23.30;51.00;;;;;;5059643;28;20094;-63
2022/06/12 06:51:01;;;;;;;2.60;1.70;;;23.40;50.80;;;;;;5059593;28;20910;-62
2022/06/12 06:53:27;;;;;;;3.25;1.50;;;23.40;50.70;;;;;;5057194;28;20100;-63
2022/06/12 06:55:53;;;;;;;2.05;1.40;;;23.40;50.50;;;;;;5058855;28;20771;-65
2022/06/12 06:58:23;;;;;;;2.40;1.50;;;23.40;50.40;;;;;;5058489;28;20393;-65
2022/06/12 07:00:49;;;;;;;3.50;1.50;;;23.50;50.40;;;;;;5059784;28;20040;-61
2022/06/12 07:03:16;;;;;;;3.55;1.50;;;23.50;50.30;;;;;;5056912;28;20074;-64
2022/06/12 07:05:44;;;;;;;2.13;1.40;;;23.50;50.30;;;;;;5058777;28;20027;-65
2022/06/12 07:08:10;;;;;;;1.77;1.30;;;23.50;50.10;;;;;;5056299;28;20024;-64
2022/06/12 07:10:36;;;;;;;3.20;1.38;;;23.60;50.20;;;;;;5058340;28;20032;-66
2022/06/12 07:13:02;;;;;;;1.77;1.17;;;23.60;50.10;;;;;;5057658;28;20074;-65
2022/06/12 07:15:30;;;;;;;2.38;1.40;;;23.60;50.00;;;;;;5058174;28;20032;-65
2022/06/12 07:17:56;;;;;;;1.80;1.23;;;23.60;50.00;;;;;;5059763;28;20024;-65
2022/06/12 07:20:25;;;;;;;2.13;1.20;;;23.60;50.00;;;;;;5059454;28;20059;-61
2022/06/12 07:22:51;;;;;;;1.48;1.20;;;23.60;50.00;;;;;;5057161;28;20029;-62
2022/06/12 07:25:17;;;;;;;1.60;1.10;;;23.60;49.90;;;;;;5055107;28;20091;-65
2022/06/12 07:27:44;;;;;;;2.20;1.30;;;23.60;49.90;;;;;;5059467;28;20028;-65
2022/06/12 07:30:13;;;;;;;1.60;1.20;;;23.60;49.90;;;;;;5057533;28;20492;-65
2022/06/12 07:32:38;;;;;;;2.25;1.15;;;23.60;49.90;;;;;;5060041;28;20031;-66
2022/06/12 07:35:05;;;;;;;1.88;1.20;;;23.70;49.90;;;;;;5056786;28;20530;-61
2022/06/12 07:37:32;;;;;;;1.35;1.15;;;23.70;49.90;;;;;;5058175;28;20060;-66
2022/06/12 07:39:58;;;;;;;2.63;1.38;;;23.60;49.80;;;;;;5055916;28;20148;-65
2022/06/12 07:42:24;;;;;;;2.25;1.27;;;23.70;49.80;;;;;;5057519;28;20078;-65
2022/06/12 07:44:49;;;;;;;2.05;1.27;;;23.70;49.80;;;;;;5056416;28;20036;-63
2022/06/12 07:47:15;;;;;;;1.98;1.30;;;23.70;49.80;;;;;;5058963;28;20032;-66
2022/06/12 07:49:41;;;;;;;2.00;1.10;;;23.70;49.80;;;;;;5057867;28;20044;-66
2022/06/12 07:52:08;;;;;;;2.28;1.30;;;23.70;49.80;;;;;;5057973;28;20028;-66
2022/06/12 07:54:36;;;;;;;3.00;1.25;;;23.70;49.80;;;;;;5054718;28;20052;-63
2022/06/12 07:57:02;;;;;;;1.70;1.05;;;23.70;49.80;;;;;;5057555;28;20039;-66
2022/06/12 07:59:28;;;;;;;1.90;1.15;;;23.70;49.80;;;;;;5057435;28;20021;-64
2022/06/12 08:01:54;;;;;;;2.15;1.20;;;23.70;49.80;;;;;;5056783;28;20086;-66
2022/06/12 08:04:21;;;;;;;2.25;1.20;;;23.70;49.80;;;;;;5057560;28;20025;-66
2022/06/12 08:06:47;;;;;;;1.98;1.20;;;23.70;49.80;;;;;;5056509;28;20031;-66
2022/06/12 08:09:14;;;;;;;2.03;1.25;;;23.70;49.80;;;;;;5056139;28;20020;-63
2022/06/12 08:11:47;;;;;;;2.58;1.20;;;23.70;49.80;;;;;;5057825;28;20400;-62
2022/06/12 08:14:14;;;;;;;2.03;1.15;;;23.70;49.80;;;;;;5056525;28;20083;-62
2022/06/12 08:16:41;;;;;;;1.73;1.10;;;23.70;49.80;;;;;;5057041;28;20539;-66
2022/06/12 08:20:24;;;;;;;1.85;1.17;;;23.70;49.90;;;;;;5039638;28;20039;-63
2022/06/12 08:21:52;;;;;;;1.30;1.00;;;23.70;49.80;;;;;;5056975;28;20032;-65
2022/06/12 08:24:19;;;;;;;1.70;1.20;;;23.70;49.90;;;;;;5035305;28;20028;-65
2022/06/12 08:26:44;;;;;;;1.95;1.20;;;23.70;49.90;;;;;;5056889;28;20089;-62
2022/06/12 08:29:11;;;;;;;2.33;1.33;;;23.70;49.90;;;;;;5056350;28;20036;-65
2022/06/12 08:31:41;;;;;;;1.70;1.30;;;23.70;50.00;;;;;;5056061;28;20135;-65
2022/06/12 08:34:23;;;;;;;1.65;1.23;;;23.70;50.00;;;;;;5057431;28;20101;-65
2022/06/12 08:36:59;;;;;;;1.52;1.10;;;23.70;50.00;;;;;;5057248;28;20516;-65
2022/06/12 08:39:25;;;;;;;1.42;1.10;;;23.70;50.00;;;;;;5054889;28;20035;-66
2022/06/12 08:42:12;;;;;;;2.13;1.30;;;23.70;49.90;;;;;;5052102;28;20037;-63
2022/06/12 08:44:47;;;;;;;1.40;1.10;;;23.70;50.00;;;;;;5053876;28;20031;-65
2022/06/12 08:47:31;;;;;;;1.60;1.20;;;23.80;50.00;;;;;;5056875;28;20030;-66
2022/06/12 08:49:59;;;;;;;2.05;1.20;;;23.80;50.00;;;;;;5056766;28;20069;-65
2022/06/12 08:52:34;;;;;;;1.48;1.10;;;23.80;50.10;;;;;;5056615;28;20846;-63
2022/06/12 08:55:11;;;;;;;1.52;1.10;;;23.80;49.90;;;;;;5054257;28;20032;-65
2022/06/12 08:57:50;;;;;;;1.75;1.10;;;23.80;49.90;;;;;;5056854;28;20378;-66
2022/06/12 09:00:27;;;;;;;1.00;0.90;;;23.80;49.90;;;;;;5056078;28;20033;-65
2022/06/12 09:02:53;;;;;;;1.77;1.10;;;23.80;49.90;;;;;;5056990;28;20492;-65
2022/06/12 09:05:31;;;;;;;1.73;1.10;;;23.80;49.80;;;;;;5055250;28;20112;-62
2022/06/12 09:08:12;;;;;;;1.30;1.10;;;23.80;49.80;;;;;;5055448;28;20086;-62
2022/06/12 09:10:50;;;;;;;1.80;1.25;;;23.80;49.80;;;;;;5055574;28;20032;-66
2022/06/12 09:13:29;;;;;;;1.38;1.10;;;23.80;49.90;;;;;;5055903;28;20028;-62
2022/06/12 09:16:19;;;;;;;1.83;1.27;;;23.80;49.90;;;;;;5056753;28;20117;-63
2022/06/12 09:19:07;;;;;;;1.40;1.20;;;23.80;49.80;;;;;;5056276;28;20428;-61
2022/06/12 09:22:02;;;;;;;1.73;1.20;;;23.80;49.90;;;;;;5056524;28;20050;-63
2022/06/12 09:24:53;;;;;;;1.75;1.20;;;23.90;49.90;;;;;;5054910;28;20047;-65
2022/06/12 09:27:29;;;;;;;2.00;1.40;;;23.90;49.90;;;;;;5057432;28;20147;-65
2022/06/12 09:30:14;;;;;;;1.30;1.13;;;23.90;49.90;;;;;;5056125;28;20028;-66
2022/06/12 09:32:51;;;;;;;1.50;1.05;;;23.90;49.90;;;;;;5056277;28;20055;-65
2022/06/12 09:35:35;;;;;;;1.73;1.27;;;23.90;49.90;;;;;;5056274;28;20036;-65
2022/06/12 09:38:41;;;;;;;1.95;1.20;;;23.90;49.90;;;;;;5054237;28;20886;-62
2022/06/12 09:41:26;;;;;;;2.28;1.30;;;23.90;49.90;;;;;;5055354;28;20100;-66
2022/06/12 09:44:10;;;;;;;1.25;1.10;;;23.90;49.90;;;;;;5055368;28;20024;-64
2022/06/12 09:47:03;;;;;;;2.00;1.20;;;23.90;49.90;;;;;;5054136;28;20117;-64
2022/06/12 09:50:02;;;;;;;1.90;1.38;;;23.90;49.90;;;;;;5056349;28;21065;-65
2022/06/12 09:52:33;;;;;;;2.03;1.27;;;23.90;49.90;;;;;;5056880;28;20082;-62
2022/06/12 09:55:33;;;;;;;2.00;1.23;;;23.90;49.90;;;;;;5053636;28;20021;-64
2022/06/12 09:58:22;;;;;;;2.33;1.35;;;23.90;49.90;;;;;;5056728;28;20021;-62
2022/06/12 10:00:53;;;;;;;1.75;1.20;;;23.90;49.90;;;;;;5053916;28;20560;-63
2022/06/12 10:03:19;;;;;;;1.50;1.20;;;23.90;50.00;;;;;;5054766;28;20104;-62
2022/06/12 10:06:00;;;;;;;1.77;1.20;;;23.90;50.00;;;;;;5052040;28;20148;-66
2022/06/12 10:08:50;;;;;;;2.03;1.25;;;23.90;49.90;;;;;;5051947;28;20028;-65
2022/06/12 10:11:24;;;;;;;2.55;1.30;;;24.00;50.00;;;;;;5052923;28;20476;-65
2022/06/12 10:13:55;;;;;;;1.88;1.30;;;24.00;50.00;;;;;;5053668;28;20035;-65
2022/06/12 10:16:30;;;;;;;2.63;1.23;;;24.00;50.00;;;;;;5051569;28;20048;-66
2022/06/12 10:19:02;;;;;;;1.50;1.20;;;24.00;50.00;;;;;;5052911;28;20451;-64
2022/06/12 10:21:31;;;;;;;1.80;1.23;;;24.00;50.10;;;;;;5053103;28;20021;-66
2022/06/12 10:23:58;;;;;;;1.50;1.10;;;24.00;50.10;;;;;;5051469;28;20039;-65
2022/06/12 10:26:28;;;;;;;1.75;1.15;;;24.00;50.10;;;;;;5053981;28;20537;-63
2022/06/12 10:29:00;;;;;;;1.60;1.10;;;24.00;50.10;;;;;;5052431;28;20032;-65
2022/06/12 10:31:25;;;;;;;1.95;1.27;;;24.00;50.10;;;;;;5053196;28;20505;-66
2022/06/12 10:34:04;;;;;;;2.25;1.20;;;24.10;50.20;;;;;;5052039;28;20111;-66
2022/06/12 10:36:33;;;;;;;2.38;1.20;;;24.10;50.20;;;;;;5054643;28;20504;-66
2022/06/12 10:39:26;;;;;;;1.20;1.05;;;24.10;50.20;;;;;;5050600;28;20688;-64
2022/06/12 10:41:57;;;;;;;1.63;1.17;;;24.10;50.30;;;;;;5050664;28;20654;-65
2022/06/12 10:44:33;;;;;;;1.50;1.20;;;24.00;50.20;;;;;;5055415;28;20464;-65
2022/06/12 10:47:26;;;;;;;1.90;1.15;;;24.10;50.30;;;;;;5056483;28;20031;-65
2022/06/12 10:50:15;;;;;;;1.67;1.30;;;24.10;50.30;;;;;;5057258;28;20114;-65
2022/06/12 10:53:09;;;;;;;2.13;1.50;;;24.10;50.30;;;;;;5056522;28;20079;-63
2022/06/12 10:55:54;;;;;;;1.83;1.20;;;24.10;50.30;;;;;;5056107;28;20078;-62
2022/06/12 10:58:48;;;;;;;1.50;1.10;;;24.10;50.30;;;;;;5056249;28;20035;-66
2022/06/12 11:01:33;;;;;;;1.98;1.15;;;24.10;50.30;;;;;;5048441;28;20061;-65
2022/06/12 11:04:20;;;;;;;1.42;1.20;;;24.10;50.30;;;;;;5054306;28;20021;-65
2022/06/12 11:07:18;;;;;;;1.75;1.20;;;24.10;50.30;;;;;;5056345;28;20051;-65
2022/06/12 11:10:08;;;;;;;1.73;1.20;;;24.10;50.30;;;;;;5017536;28;20048;-65
2022/06/12 11:12:42;;;;;;;1.35;1.10;;;24.10;50.30;;;;;;5056940;28;20032;-65
2022/06/12 11:15:36;;;;;;;1.83;1.10;;;24.10;50.30;;;;;;5055929;28;20033;-65
2022/06/12 11:18:18;;;;;;;1.10;0.98;;;24.10;50.30;;;;;;5056075;28;20028;-63
2022/06/12 11:21:11;;;;;;;1.65;1.20;;;24.10;50.30;;;;;;5057860;28;20025;-65
2022/06/12 11:24:03;;;;;;;1.27;1.05;;;24.10;50.30;;;;;;5054589;28;20024;-65
2022/06/12 11:26:29;;;;;;;1.65;1.17;;;24.10;50.30;;;;;;5041628;28;20040;-66
2022/06/12 11:29:33;;;;;;;1.25;1.00;;;24.10;50.30;;;;;;5053508;28;20907;-63
2022/06/12 11:32:31;;;;;;;1.55;1.23;;;24.10;50.30;;;;;;5054778;28;20044;-64
2022/06/12 11:35:02;;;;;;;2.03;1.02;;;24.20;50.30;;;;;;5015228;28;20431;-66
2022/06/12 11:37:49;;;;;;;1.13;1.00;;;24.10;50.20;;;;;;5055616;28;20020;-66
2022/06/12 11:40:24;;;;;;;1.10;1.00;;;24.20;50.30;;;;;;5054151;28;20556;-66
2022/06/12 11:43:04;;;;;;;1.33;1.08;;;24.20;50.30;;;;;;5055136;28;20035;-66
2022/06/12 11:45:50;;;;;;;1.52;1.10;;;24.20;50.30;;;;;;5055918;28;20099;-65
2022/06/12 11:48:28;;;;;;;1.27;1.00;;;24.20;50.30;;;;;;5055874;28;20590;-65
2022/06/12 11:51:03;;;;;;;1.70;1.20;;;24.20;50.30;;;;;;5055545;28;20115;-65
2022/06/12 11:53:40;;;;;;;1.60;1.10;;;24.20;50.30;;;;;;5052009;28;20644;-62
2022/06/12 11:56:47;;;;;;;1.38;1.08;;;24.20;50.30;;;;;;5055355;28;20544;-66
2022/06/12 11:59:27;;;;;;;1.13;0.90;;;24.20;50.30;;;;;;5054842;28;20065;-62
2022/06/12 12:02:04;;;;;;;1.10;1.00;;;24.20;50.30;;;;;;5053512;28;20056;-62
2022/06/12 12:04:36;;;;;;;1.40;1.10;;;24.20;50.30;;;;;;5053991;28;20051;-65
2022/06/12 12:07:30;;;;;;;1.27;1.02;;;24.20;50.30;;;;;;5054982;28;20598;-65
2022/06/12 12:10:03;;;;;;;1.40;1.10;;;24.30;50.40;;;;;;5051780;28;20024;-65
2022/06/12 12:12:35;;;;;;;1.52;1.00;;;24.20;50.30;;;;;;5055196;28;20052;-65
2022/06/12 12:15:05;;;;;;;1.20;1.00;;;24.20;50.30;;;;;;5055267;28;20032;-62
2022/06/12 12:17:40;;;;;;;1.13;0.98;;;24.30;50.40;;;;;;5054435;28;20040;-65
2022/06/12 12:20:50;;;;;;;1.55;1.17;;;24.30;50.40;;;;;;5055110;28;20020;-63
2022/06/12 12:23:22;;;;;;;1.10;1.00;;;24.30;50.90;;;;;;5030942;28;20046;-63
2022/06/12 12:26:01;;;;;;;1.65;1.00;;;24.30;50.40;;;;;;5053111;28;20028;-62
2022/06/12 12:28:42;;;;;;;1.20;0.90;;;24.30;50.40;;;;;;5053730;28;20033;-66
2022/06/12 12:31:12;;;;;;;1.75;1.13;;;24.30;50.40;;;;;;5052127;28;20040;-62
2022/06/12 12:33:39;;;;;;;1.33;1.05;;;24.30;50.40;;;;;;5056972;28;20052;-65
2022/06/12 12:41:55;;;;;;;1.05;0.90;;;24.30;50.40;;;;;;5056284;28;20113;-65
2022/06/12 12:44:37;;;;;;;1.35;1.08;;;24.30;50.40;;;;;;5055914;28;20247;-63
2022/06/12 12:47:04;;;;;;;1.50;1.17;;;24.30;50.40;;;;;;5056374;28;20040;-66
2022/06/12 12:49:36;;;;;;;1.42;1.10;;;24.40;50.40;;;;;;5057274;28;20150;-65
2022/06/12 12:52:07;;;;;;;1.10;0.90;;;24.40;50.40;;;;;;5056817;28;20033;-65
2022/06/12 12:54:48;;;;;;;1.40;1.10;;;24.30;50.30;;;;;;5053252;28;20075;-65
2022/06/12 12:57:17;;;;;;;1.25;1.10;;;24.30;50.40;;;;;;5057439;28;20047;-65
2022/06/12 12:59:52;;;;;;;1.48;0.88;;;24.40;50.40;;;;;;5054406;28;20099;-65
2022/06/12 13:02:31;;;;;;;1.30;1.08;;;24.40;50.40;;;;;;5056173;28;20151;-66
2022/06/12 13:05:12;;;;;;;;;;;24.40;50.40;;;;;;5053517;28;20032;-65
2022/06/12 13:08:00;;;;;;;2.65;1.00;;;24.40;50.40;;;;;;5056441;28;19926;-65
2022/06/12 13:10:56;;;;;;;1.10;1.00;;;24.40;50.40;;;;;;5051661;28;21095;-64
2022/06/12 13:13:33;;;;;;;1.17;1.00;;;24.40;50.40;;;;;;5053927;28;20033;-65
2022/06/12 13:16:38;;;;;;;1.23;0.95;;;24.40;50.40;;;;;;5055046;28;20532;-66
2022/06/12 13:19:41;;;;;;;1.15;0.90;;;24.40;50.40;;;;;;5037207;28;20040;-66
2022/06/12 13:22:31;;;;;;;1.08;0.90;;;24.40;50.40;;;;;;5056541;28;20032;-65
2022/06/12 13:25:07;;;;;;;1.27;0.95;;;24.40;50.40;;;;;;5053916;28;20040;-63
2022/06/12 13:27:47;;;;;;;1.45;1.00;;;24.40;50.40;;;;;;5056772;28;20036;-65
2022/06/12 13:30:27;;;;;;;;;;;24.40;50.30;;;;;;5055880;28;20081;-65
2022/06/12 13:32:53;;;;;;;1.00;0.90;;;24.50;50.40;;;;;;5055312;28;20371;-66
2022/06/12 13:35:51;;;;;;;0.98;0.90;;;24.50;50.40;;;;;;5056161;28;20068;-66
2022/06/12 13:38:38;;;;;;;0.80;0.80;;;24.50;50.40;;;;;;5039692;28;20063;-67
2022/06/12 13:41:18;;;;;;;1.23;0.90;;;24.50;50.40;;;;;;4994483;28;20047;-65